createdAt,value
2018-11-28T00:00:30.543Z,19.13
2018-11-28T00:03:55.229Z,19.33
2018-11-28T00:07:19.933Z,19.63
2018-11-28T00:10:44.647Z,18.80
2018-11-28T00:14:09.363Z,20.00
2018-11-28T00:17:34.069Z,18.93
2018-11-28T00:20:58.750Z,19.13
2018-11-28T00:24:23.404Z,19.77
2018-11-28T00:27:48.179Z,17.90
2018-11-28T00:31:12.920Z,20.47
2018-11-28T00:34:37.672Z,18.43
2018-11-28T00:38:02.400Z,19.70
2018-11-28T00:41:27.082Z,20.47
2018-11-28T00:44:51.810Z,20.00
2018-11-28T00:48:16.474Z,20.90
2018-11-28T00:51:41.165Z,22.30
2018-11-28T00:55:06.970Z,21.17
2018-11-28T00:58:31.660Z,22.57
2018-11-28T01:01:56.320Z,20.10
2018-11-28T01:05:21.188Z,21.63
2018-11-28T01:08:45.859Z,21.70
2018-11-28T01:12:10.575Z,20.83
2018-11-28T01:15:35.252Z,20.83
2018-11-28T01:18:59.912Z,21.97
2018-11-28T01:22:24.597Z,22.37
2018-11-28T01:25:49.314Z,24.00
2018-11-28T01:29:14.090Z,21.43
2018-11-28T01:32:38.782Z,21.47
2018-11-28T01:36:03.526Z,21.57
2018-11-28T01:39:28.217Z,22.57
2018-11-28T01:42:53.404Z,21.07
2018-11-28T01:46:18.114Z,23.70
2018-11-28T01:49:42.776Z,23.03
2018-11-28T01:53:07.536Z,23.97
2018-11-28T01:56:32.306Z,24.73
2018-11-28T01:59:56.929Z,23.20
2018-11-28T02:03:21.648Z,24.77
2018-11-28T02:06:46.289Z,22.53
2018-11-28T02:10:14.432Z,23.57
2018-11-28T02:13:39.146Z,20.70
2018-11-28T02:17:03.885Z,21.33
2018-11-28T02:20:28.679Z,23.47
2018-11-28T02:23:53.362Z,24.83
2018-11-28T02:27:18.242Z,22.40
2018-11-28T02:30:49.407Z,22.17
2018-11-28T02:34:14.088Z,23.43
2018-11-28T02:37:39.137Z,23.43
2018-11-28T02:41:03.834Z,23.07
2018-11-28T02:44:28.572Z,22.80
2018-11-28T02:47:53.700Z,21.87
2018-11-28T02:51:18.415Z,24.03
2018-11-28T02:54:43.062Z,23.17
2018-11-28T02:58:07.721Z,22.37
2018-11-28T03:01:32.432Z,22.37
2018-11-28T03:04:57.187Z,23.30
2018-11-28T03:08:21.888Z,22.47
2018-11-28T03:11:46.628Z,22.93
2018-11-28T03:15:15.666Z,21.63
2018-11-28T03:18:40.630Z,21.87
2018-11-28T03:22:05.514Z,23.20
2018-11-28T03:25:30.171Z,23.57
2018-11-28T03:28:54.927Z,24.47
2018-11-28T03:32:19.654Z,22.47
2018-11-28T03:35:45.863Z,25.37
2018-11-28T03:39:11.177Z,23.53
2018-11-28T03:42:35.922Z,24.03
2018-11-28T03:46:00.583Z,23.00
2018-11-28T03:49:25.247Z,23.90
2018-11-28T03:52:49.910Z,23.90
2018-11-28T03:56:14.563Z,23.03
2018-11-28T03:59:39.218Z,21.27
2018-11-28T04:03:03.984Z,23.30
2018-11-28T04:06:28.657Z,22.93
2018-11-28T04:09:53.358Z,22.23
2018-11-28T04:13:18.071Z,23.10
2018-11-28T04:16:42.770Z,22.83
2018-11-28T04:20:10.495Z,21.87
2018-11-28T04:23:41.761Z,21.07
2018-11-28T04:27:06.899Z,22.27
2018-11-28T04:30:31.644Z,23.27
2018-11-28T04:33:56.341Z,21.03
2018-11-28T04:37:21.034Z,22.27
2018-11-28T04:40:45.727Z,22.70
2018-11-28T04:44:10.354Z,22.83
2018-11-28T04:47:35.033Z,23.57
2018-11-28T04:50:59.775Z,22.97
2018-11-28T04:54:24.533Z,24.53
2018-11-28T04:57:49.525Z,23.93
2018-11-28T05:01:14.226Z,24.83
2018-11-28T05:04:38.935Z,20.73
2018-11-28T05:08:03.724Z,22.23
2018-11-28T05:11:28.426Z,22.03
2018-11-28T05:14:53.194Z,21.10
2018-11-28T05:18:17.929Z,23.77
2018-11-28T05:21:42.627Z,22.93
2018-11-28T05:25:17.091Z,22.33
2018-11-28T05:28:42.898Z,22.73
2018-11-28T05:32:08.885Z,23.80
2018-11-28T05:35:39.101Z,22.83
2018-11-28T05:39:03.940Z,23.27
2018-11-28T05:42:28.665Z,22.77
2018-11-28T05:45:53.325Z,23.57
2018-11-28T05:49:18.000Z,23.93
2018-11-28T05:52:42.754Z,23.90
2018-11-28T05:56:07.633Z,23.50
2018-11-28T05:59:32.353Z,23.57
2018-11-28T06:02:57.078Z,23.63
2018-11-28T06:06:21.805Z,25.23
2018-11-28T06:09:46.545Z,24.57
2018-11-28T06:13:11.262Z,25.47
2018-11-28T06:16:37.595Z,24.70
2018-11-28T06:20:02.354Z,24.67
2018-11-28T06:23:27.053Z,23.87
2018-11-28T06:26:51.795Z,25.63
2018-11-28T06:30:20.436Z,26.20
2018-11-28T06:33:45.159Z,25.60
2018-11-28T06:37:09.935Z,25.47
2018-11-28T06:40:34.763Z,25.40
2018-11-28T06:43:59.530Z,24.40
2018-11-28T06:47:24.224Z,25.07
2018-11-28T06:50:49.032Z,25.77
2018-11-28T06:54:13.891Z,26.27
2018-11-28T06:57:38.638Z,23.30
2018-11-28T07:01:03.689Z,24.73
2018-11-28T07:04:28.487Z,26.13
2018-11-28T07:07:53.936Z,26.13
2018-11-28T07:11:18.676Z,25.73
2018-11-28T07:14:43.419Z,24.67
2018-11-28T07:18:24.783Z,22.77
2018-11-28T07:21:49.487Z,25.93
2018-11-28T07:25:16.775Z,23.40
2018-11-28T07:28:41.498Z,25.40
2018-11-28T07:32:06.433Z,23.27
2018-11-28T07:35:31.154Z,25.93
2018-11-28T07:38:55.969Z,25.03
2018-11-28T07:42:20.660Z,23.67
2018-11-28T07:45:51.547Z,24.07
2018-11-28T07:49:16.231Z,22.90
2018-11-28T07:52:40.964Z,24.23
2018-11-28T07:56:05.733Z,23.33
2018-11-28T07:59:30.396Z,24.20
2018-11-28T08:02:55.097Z,23.63
2018-11-28T08:06:19.842Z,23.00
2018-11-28T08:09:44.526Z,23.00
2018-11-28T08:13:10.259Z,23.13
2018-11-28T08:16:34.937Z,23.73
2018-11-28T08:19:59.624Z,22.40
2018-11-28T08:23:24.348Z,24.43
2018-11-28T08:26:49.078Z,22.87
2018-11-28T08:30:22.363Z,24.70
2018-11-28T08:33:47.088Z,23.73
2018-11-28T08:37:11.805Z,25.27
2018-11-28T08:40:36.521Z,23.60
2018-11-28T08:44:01.233Z,25.60
2018-11-28T08:47:25.983Z,27.23
2018-11-28T08:50:50.829Z,25.43
2018-11-28T08:54:15.502Z,23.17
2018-11-28T08:57:40.202Z,25.77
2018-11-28T09:01:04.981Z,23.23
2018-11-28T09:04:29.703Z,24.33
2018-11-28T09:07:54.424Z,24.53
2018-11-28T09:11:19.137Z,23.37
2018-11-28T09:14:43.886Z,25.27
2018-11-28T09:18:08.663Z,24.93
2018-11-28T09:21:33.362Z,24.70
2018-11-28T09:25:02.077Z,24.20
2018-11-28T09:28:26.851Z,26.00
2018-11-28T09:31:51.605Z,22.90
2018-11-28T09:35:16.827Z,26.97
2018-11-28T09:38:41.559Z,26.27
2018-11-28T09:42:06.996Z,25.03
2018-11-28T09:45:31.719Z,23.40
2018-11-28T09:48:56.484Z,24.63
2018-11-28T09:52:21.253Z,22.83
2018-11-28T09:55:45.968Z,24.07
2018-11-28T09:59:10.710Z,26.13
2018-11-28T10:02:35.431Z,22.87
2018-11-28T10:06:00.155Z,24.10
2018-11-28T10:09:24.918Z,23.80
2018-11-28T10:12:50.110Z,26.00
2018-11-28T10:16:14.895Z,26.10
2018-11-28T10:19:39.720Z,25.73
2018-11-28T10:23:04.456Z,25.30
2018-11-28T10:26:29.160Z,22.90
2018-11-28T10:29:53.865Z,23.47
2018-11-28T10:33:18.625Z,24.00
2018-11-28T10:36:43.422Z,24.93
2018-11-28T10:40:16.211Z,24.90
2018-11-28T10:43:40.983Z,24.50
2018-11-28T10:47:05.744Z,25.17
2018-11-28T10:50:30.588Z,24.23
2018-11-28T10:53:55.677Z,23.53
2018-11-28T10:57:20.500Z,24.83
2018-11-28T11:00:50.474Z,25.47
2018-11-28T11:04:15.956Z,26.13
2018-11-28T11:09:51.221Z,23.10
2018-11-28T11:13:21.114Z,24.93
2018-11-28T11:16:45.854Z,23.87
2018-11-28T11:20:10.661Z,25.37
2018-11-28T11:23:35.389Z,26.73
2018-11-28T11:27:00.081Z,24.33
2018-11-28T11:30:24.896Z,24.17
2018-11-28T11:33:49.676Z,23.17
2018-11-28T11:37:14.443Z,24.80
2018-11-28T11:40:39.167Z,24.37
2018-11-28T11:44:03.908Z,25.20
2018-11-28T11:47:28.626Z,24.93
2018-11-28T11:50:53.394Z,22.73
2018-11-28T11:54:18.178Z,24.17
2018-11-28T11:57:43.065Z,23.00
2018-11-28T12:01:08.785Z,24.93
2018-11-28T12:04:33.555Z,21.57
2018-11-28T12:07:58.373Z,21.77
2018-11-28T12:11:23.110Z,22.37
2018-11-28T12:14:47.808Z,21.27
2018-11-28T12:18:12.597Z,24.37
2018-11-28T12:21:37.314Z,21.70
2018-11-28T12:25:02.027Z,24.53
2018-11-28T12:28:26.757Z,23.20
2018-11-28T12:31:51.486Z,22.37
2018-11-28T12:35:18.140Z,22.93
2018-11-28T12:38:42.860Z,23.93
2018-11-28T12:42:07.805Z,22.80
2018-11-28T12:45:32.520Z,21.73
2018-11-28T12:48:57.217Z,23.13
2018-11-28T12:52:21.933Z,22.90
2018-11-28T12:55:47.201Z,22.00
2018-11-28T12:59:11.908Z,21.43
2018-11-28T13:02:36.651Z,19.77
2018-11-28T13:06:01.421Z,20.33
2018-11-28T13:09:26.189Z,17.90
2018-11-28T13:12:51.845Z,20.97
2018-11-28T13:16:16.579Z,22.23
2018-11-28T13:19:41.324Z,20.80
2018-11-28T13:23:06.578Z,19.83
2018-11-28T13:26:31.357Z,19.83
2018-11-28T13:29:56.058Z,18.60
2018-11-28T13:33:20.790Z,18.67
2018-11-28T13:36:45.525Z,19.13
2018-11-28T13:40:16.814Z,19.17
2018-11-28T13:43:41.567Z,17.87
2018-11-28T13:47:06.582Z,19.77
2018-11-28T13:50:31.367Z,21.03
2018-11-28T13:53:56.222Z,20.40
2018-11-28T13:57:21.119Z,20.10
2018-11-28T14:00:45.809Z,17.93
2018-11-28T14:04:10.557Z,19.07
2018-11-28T14:07:35.392Z,19.00
2018-11-28T14:11:00.158Z,20.50
2018-11-28T14:14:24.951Z,21.20
2018-11-28T14:18:02.622Z,22.63
2018-11-28T14:21:27.353Z,18.13
2018-11-28T14:24:52.121Z,19.80
2018-11-28T14:28:16.928Z,20.30
2018-11-28T14:31:41.723Z,21.67
2018-11-28T14:35:08.179Z,20.60
2018-11-28T14:38:32.938Z,20.67
2018-11-28T14:41:57.739Z,19.30
2018-11-28T14:45:23.058Z,20.27
2018-11-28T14:48:47.832Z,18.53
2018-11-28T14:52:12.594Z,18.93
2018-11-28T14:55:40.150Z,18.63
2018-11-28T14:59:05.498Z,21.07
2018-11-28T15:02:30.208Z,19.07
2018-11-28T15:06:22.345Z,18.83
2018-11-28T15:09:57.148Z,20.73
2018-11-28T15:13:21.859Z,18.77
2018-11-28T15:16:46.647Z,20.03
2018-11-28T15:20:11.514Z,19.87
2018-11-28T15:23:36.406Z,22.70
2018-11-28T15:27:01.519Z,23.47
2018-11-28T15:30:26.359Z,19.47
2018-11-28T15:33:51.131Z,22.57
2018-11-28T15:37:15.889Z,24.30
2018-11-28T15:40:40.585Z,25.50
2018-11-28T15:44:05.338Z,35.60
2018-11-28T15:47:30.097Z,32.73
2018-11-28T15:50:54.872Z,31.40
2018-11-28T15:54:19.612Z,31.37
2018-11-28T15:57:44.393Z,28.80
2018-11-28T16:01:09.246Z,27.07
2018-11-28T16:04:33.912Z,29.03
2018-11-28T16:07:58.706Z,25.90
2018-11-28T16:11:24.776Z,25.20
2018-11-28T16:14:49.510Z,29.23
2018-11-28T16:18:14.271Z,26.03
2018-11-28T16:21:39.058Z,24.93
2018-11-28T16:25:04.151Z,24.77
2018-11-28T16:28:28.867Z,27.23
2018-11-28T16:31:53.665Z,30.70
2018-11-28T16:35:18.982Z,33.13
2018-11-28T16:38:44.266Z,35.33
2018-11-28T16:42:09.011Z,34.10
2018-11-28T16:45:33.771Z,37.23
2018-11-28T16:48:58.443Z,36.83
2018-11-28T16:52:23.135Z,31.50
2018-11-28T16:55:47.850Z,35.30
2018-11-28T16:59:12.512Z,31.70
2018-11-28T17:02:37.309Z,34.90
2018-11-28T17:06:02.026Z,48.63
2018-11-28T17:09:26.714Z,40.23
2018-11-28T17:12:52.213Z,30.53
2018-11-28T17:16:16.875Z,31.93
2018-11-28T17:19:41.597Z,33.23
2018-11-28T17:23:07.345Z,31.60
2018-11-28T17:26:32.060Z,32.73
2018-11-28T17:29:56.796Z,34.50
2018-11-28T17:33:21.499Z,31.90
2018-11-28T17:36:46.199Z,32.37
2018-11-28T17:40:19.009Z,33.83
2018-11-28T17:43:43.793Z,31.53
2018-11-28T17:47:08.552Z,33.77
2018-11-28T17:50:33.303Z,37.13
2018-11-28T17:53:58.009Z,34.70
2018-11-28T17:57:22.818Z,34.27
2018-11-28T18:00:47.572Z,35.17
2018-11-28T18:04:12.302Z,36.60
2018-11-28T18:07:37.172Z,40.77
2018-11-28T18:11:11.502Z,39.60
2018-11-28T18:14:36.311Z,39.77
2018-11-28T18:18:01.076Z,35.93
2018-11-28T18:21:25.806Z,34.87
2018-11-28T18:24:50.551Z,55.90
2018-11-28T18:28:15.434Z,46.43
2018-11-28T18:31:40.266Z,32.90
2018-11-28T18:35:05.667Z,32.57
2018-11-28T18:38:30.594Z,31.27
2018-11-28T18:41:55.319Z,31.43
2018-11-28T18:45:27.437Z,30.60
2018-11-28T18:48:52.248Z,31.03
2018-11-28T18:52:17.859Z,32.53
2018-11-28T18:55:42.646Z,30.13
2018-11-28T18:59:07.564Z,29.20
2018-11-28T19:02:32.276Z,28.53
2018-11-28T19:05:56.990Z,29.43
2018-11-28T19:09:26.736Z,27.53
2018-11-28T19:12:52.373Z,29.50
2018-11-28T19:16:17.203Z,25.67
2018-11-28T19:19:42.047Z,26.83
2018-11-28T19:23:07.098Z,21.40
2018-11-28T19:26:32.425Z,24.23
2018-11-28T19:29:58.462Z,22.87
2018-11-28T19:33:23.770Z,26.77
2018-11-28T19:36:49.356Z,25.13
2018-11-28T19:40:34.689Z,25.73
2018-11-28T19:44:00.087Z,25.50
2018-11-28T19:47:26.224Z,24.23
2018-11-28T19:50:51.080Z,22.80
2018-11-28T19:54:15.786Z,22.40
2018-11-28T19:57:40.480Z,22.60
2018-11-28T20:01:05.299Z,21.23
2018-11-28T20:04:30.003Z,23.37
2018-11-28T20:07:54.919Z,23.17
2018-11-28T20:11:19.631Z,20.50
2018-11-28T20:14:46.292Z,20.67
2018-11-28T20:18:12.817Z,21.13
2018-11-28T20:21:38.766Z,18.87
2018-11-28T20:25:07.364Z,21.17
2018-11-28T20:28:32.080Z,19.13
2018-11-28T20:31:58.569Z,18.40
2018-11-28T20:35:24.290Z,16.97
2018-11-28T20:38:50.247Z,20.37
2018-11-28T20:42:15.012Z,19.30
2018-11-28T20:45:39.719Z,19.80
2018-11-28T20:49:04.480Z,20.20
2018-11-28T20:52:29.328Z,23.13
2018-11-28T20:55:54.092Z,20.00
2018-11-28T20:59:20.188Z,22.03
2018-11-28T21:02:45.012Z,24.50
2018-11-28T21:06:09.743Z,22.23
2018-11-28T21:09:38.731Z,21.23
2018-11-28T21:13:04.131Z,19.60
2018-11-28T21:16:28.966Z,23.43
2018-11-28T21:19:53.782Z,25.17
2018-11-28T21:23:20.142Z,23.47
2018-11-28T21:26:46.424Z,23.17
2018-11-28T21:30:15.907Z,26.30
2018-11-28T21:33:40.604Z,22.67
2018-11-28T21:37:05.338Z,18.20
2018-11-28T21:40:30.088Z,21.80
2018-11-28T21:43:55.813Z,28.50
2018-11-28T21:47:20.638Z,25.57
2018-11-28T21:50:45.624Z,24.23
2018-11-28T21:54:10.387Z,27.37
2018-11-28T21:57:35.237Z,20.23
2018-11-28T22:00:59.926Z,21.17
2018-11-28T22:04:24.625Z,29.23
2018-11-28T22:07:49.385Z,25.97
2018-11-28T22:11:14.084Z,19.47
2018-11-28T22:14:38.793Z,17.97
2018-11-28T22:18:03.552Z,22.70
2018-11-28T22:21:28.251Z,20.07
2018-11-28T22:24:52.923Z,19.60
2018-11-28T22:28:17.655Z,21.37
2018-11-28T22:31:42.321Z,18.87
2018-11-28T22:35:07.823Z,17.57
2018-11-28T22:38:32.566Z,16.40
2018-11-28T22:41:57.199Z,19.67
2018-11-28T22:45:24.505Z,20.33
2018-11-28T22:48:49.212Z,18.07
2018-11-28T22:52:13.966Z,61.77
2018-11-28T22:55:38.733Z,31.80
2018-11-28T22:59:03.435Z,19.93
2018-11-28T23:03:37.576Z,19.63
2018-11-28T23:07:02.280Z,22.00
2018-11-28T23:10:27.062Z,25.23
2018-11-28T23:13:51.804Z,20.93
2018-11-28T23:17:16.537Z,16.83
2018-11-28T23:20:41.210Z,16.20
2018-11-28T23:24:06.482Z,18.07
2018-11-28T23:27:31.170Z,16.60
2018-11-28T23:30:55.894Z,15.27
2018-11-28T23:34:20.588Z,17.77
2018-11-28T23:37:46.975Z,19.27
2018-11-28T23:41:11.638Z,39.60
2018-11-28T23:44:36.357Z,27.97
2018-11-28T23:48:01.068Z,22.90
2018-11-28T23:51:25.770Z,28.17
2018-11-28T23:54:50.522Z,24.37
2018-11-28T23:58:15.390Z,28.07
